createdAt,value
2022-08-12T00:02:39.034Z,1.00
2022-08-12T00:05:24.856Z,99.90
2022-08-12T00:08:07.694Z,99.90
2022-08-12T00:10:50.457Z,1.00
2022-08-12T00:13:36.059Z,1.00
2022-08-12T00:16:19.263Z,1.00
2022-08-12T00:19:02.212Z,1.00
2022-08-12T00:21:44.951Z,99.90
2022-08-12T00:24:29.089Z,94.70
2022-08-12T00:27:13.686Z,99.90
2022-08-12T00:29:59.531Z,1.00
2022-08-12T00:32:54.797Z,1.00
2022-08-12T00:35:40.383Z,94.90
2022-08-12T00:38:23.245Z,99.90
2022-08-12T00:41:07.065Z,99.90
2022-08-12T00:43:47.130Z,1.00
2022-08-12T00:46:32.458Z,1.00
2022-08-12T00:49:04.593Z,99.90
2022-08-12T00:51:50.174Z,99.90
2022-08-12T00:54:23.017Z,99.90
2022-08-12T00:56:58.140Z,77.70
2022-08-12T00:59:28.409Z,1.00
2022-08-12T01:02:12.142Z,1.00
2022-08-12T01:04:59.526Z,99.90
2022-08-12T01:07:44.101Z,15.10
2022-08-12T01:10:32.651Z,1.00
2022-08-12T01:13:19.354Z,1.00
2022-08-12T01:15:57.468Z,1.00
2022-08-12T01:18:33.804Z,1.00
2022-08-12T01:21:16.966Z,99.90
2022-08-12T01:24:29.942Z,99.90
2022-08-12T01:27:02.544Z,1.00
2022-08-12T01:29:36.955Z,1.00
2022-08-12T01:32:14.360Z,1.00
2022-08-12T01:34:57.899Z,99.90
2022-08-12T01:37:33.411Z,99.90
2022-08-12T01:40:36.001Z,99.90
2022-08-12T01:43:08.994Z,99.90
2022-08-12T01:45:50.378Z,99.90
2022-08-12T01:48:39.858Z,1.00
2022-08-12T01:52:15.229Z,1.00
2022-08-12T01:54:22.346Z,1.00
2022-08-12T01:57:02.472Z,1.00
2022-08-12T01:59:50.325Z,1.00
2022-08-12T02:02:28.076Z,1.00
2022-08-12T02:05:33.043Z,1.00
2022-08-12T02:08:42.641Z,1.00
2022-08-12T02:11:29.553Z,99.90
2022-08-12T02:14:44.815Z,99.90
2022-08-12T02:17:54.779Z,99.90
2022-08-12T02:20:51.753Z,99.90
2022-08-12T02:23:28.316Z,99.90
2022-08-12T02:26:04.036Z,99.90
2022-08-12T02:28:34.885Z,99.90
2022-08-12T02:31:11.617Z,16.90
2022-08-12T02:33:44.147Z,1.00
2022-08-12T02:36:16.488Z,1.00
2022-08-12T02:38:53.173Z,1.00
2022-08-12T02:41:32.783Z,1.00
2022-08-12T02:44:11.026Z,1.00
2022-08-12T02:46:51.175Z,1.00
2022-08-12T02:49:29.055Z,1.00
2022-08-12T02:52:03.042Z,99.90
2022-08-12T02:54:33.411Z,99.90
2022-08-12T02:57:06.233Z,1.00
2022-08-12T02:59:38.296Z,1.00
2022-08-12T03:02:15.739Z,17.80
2022-08-12T03:04:54.021Z,99.90
2022-08-12T03:07:54.335Z,99.90
2022-08-12T03:10:37.632Z,1.00
2022-08-12T03:13:10.400Z,1.00
2022-08-12T03:15:44.598Z,1.00
2022-08-12T03:18:28.867Z,1.00
2022-08-12T03:21:00.683Z,1.00
2022-08-12T03:23:32.563Z,1.00
2022-08-12T03:26:05.816Z,1.00
2022-08-12T03:28:54.481Z,1.00
2022-08-12T03:31:30.092Z,1.00
2022-08-12T03:34:07.435Z,1.00
2022-08-12T03:36:43.275Z,1.00
2022-08-12T03:39:37.029Z,1.00
2022-08-12T03:42:34.482Z,1.00
2022-08-12T03:45:51.464Z,1.00
2022-08-12T03:48:37.378Z,1.00
2022-08-12T03:51:26.404Z,1.00
2022-08-12T03:54:11.252Z,1.00
2022-08-12T03:56:55.027Z,1.00
2022-08-12T03:59:37.828Z,1.00
2022-08-12T04:02:08.228Z,1.00
2022-08-12T04:04:45.479Z,1.00
2022-08-12T04:07:18.980Z,1.00
2022-08-12T04:09:50.259Z,1.00
2022-08-12T04:12:35.524Z,1.00
2022-08-12T04:15:06.841Z,1.00
2022-08-12T04:17:40.077Z,1.00
2022-08-12T04:20:36.456Z,1.00
2022-08-12T04:23:09.864Z,1.00
2022-08-12T04:25:42.773Z,1.00
2022-08-12T04:28:14.715Z,1.00
2022-08-12T04:30:44.942Z,1.00
2022-08-12T04:33:15.764Z,1.00
2022-08-12T04:35:46.719Z,1.00
2022-08-12T04:38:23.967Z,1.00
2022-08-12T04:40:55.126Z,1.00
2022-08-12T04:44:00.199Z,1.00
2022-08-12T04:46:23.319Z,1.00
2022-08-12T04:48:54.692Z,1.00
2022-08-12T04:51:26.950Z,1.00
2022-08-12T04:54:01.274Z,1.00
2022-08-12T04:56:35.430Z,1.00
2022-08-12T04:59:08.803Z,1.00
2022-08-12T05:01:39.065Z,1.00
2022-08-12T05:04:12.432Z,1.00
2022-08-12T05:06:45.522Z,1.00
2022-08-12T05:09:21.016Z,1.00
2022-08-12T05:11:54.345Z,1.00
2022-08-12T05:14:25.753Z,1.00
2022-08-12T05:16:56.319Z,1.00
2022-08-12T05:19:27.280Z,1.00
2022-08-12T05:22:00.233Z,1.00
2022-08-12T05:24:37.034Z,1.00
2022-08-12T05:27:07.684Z,1.00
2022-08-12T05:30:05.621Z,1.00
2022-08-12T05:32:28.449Z,99.90
2022-08-12T05:34:58.739Z,99.90
2022-08-12T05:37:32.023Z,9.50
2022-08-12T05:40:10.867Z,99.90
2022-08-12T05:42:42.427Z,99.90
2022-08-12T05:45:13.941Z,1.00
2022-08-12T05:47:53.764Z,1.00
2022-08-12T05:50:27.177Z,1.00
2022-08-12T05:52:57.454Z,1.00
2022-08-12T05:55:31.687Z,78.60
2022-08-12T05:58:07.926Z,23.00
2022-08-12T06:00:39.215Z,13.10
2022-08-12T06:03:09.693Z,99.90
2022-08-12T06:05:55.666Z,50.50
2022-08-12T06:08:28.943Z,1.00
2022-08-12T06:11:02.572Z,90.90
2022-08-12T06:13:54.182Z,1.00
2022-08-12T06:16:29.359Z,1.00
2022-08-12T06:18:59.588Z,1.00
2022-08-12T06:21:30.391Z,1.00
2022-08-12T06:24:01.420Z,1.00
2022-08-12T06:26:37.115Z,99.90
2022-08-12T06:29:07.383Z,99.90
2022-08-12T06:31:38.953Z,99.90
2022-08-12T06:35:24.307Z,99.90
2022-08-12T06:37:00.339Z,99.90
2022-08-12T06:39:30.738Z,99.90
2022-08-12T06:42:32.827Z,1.00
2022-08-12T06:45:03.871Z,1.00
2022-08-12T06:47:38.728Z,99.90
2022-08-12T06:50:11.399Z,99.90
2022-08-12T06:52:41.720Z,99.90
2022-08-12T06:55:16.148Z,1.00
2022-08-12T06:58:07.943Z,1.00
2022-08-12T07:00:43.606Z,1.00
2022-08-12T07:03:27.722Z,99.90
2022-08-12T07:06:10.597Z,99.90
2022-08-12T07:08:43.628Z,99.90
2022-08-12T07:11:16.634Z,99.90
2022-08-12T07:14:05.030Z,99.90
2022-08-12T07:17:02.282Z,99.90
2022-08-12T07:19:40.703Z,1.00
2022-08-12T07:22:15.813Z,1.00
2022-08-12T07:25:06.002Z,1.00
2022-08-12T07:27:42.778Z,1.00
2022-08-12T07:30:16.561Z,1.00
2022-08-12T07:32:47.609Z,1.00
2022-08-12T07:35:21.407Z,1.00
2022-08-12T07:37:55.607Z,1.00
2022-08-12T07:40:27.381Z,1.00
2022-08-12T07:42:57.676Z,1.00
2022-08-12T07:45:33.380Z,1.00
2022-08-12T07:48:03.622Z,1.00
2022-08-12T07:50:33.811Z,1.00
2022-08-12T07:53:04.333Z,1.00
2022-08-12T07:55:37.781Z,1.00
2022-08-12T07:58:10.931Z,1.00
2022-08-12T08:00:44.135Z,1.00
2022-08-12T08:03:17.283Z,1.00
2022-08-12T08:05:53.016Z,1.00
2022-08-12T08:08:27.724Z,1.00
2022-08-12T08:11:12.895Z,1.00
2022-08-12T08:13:49.775Z,1.00
2022-08-12T08:16:22.528Z,1.00
2022-08-12T08:18:53.350Z,1.00
2022-08-12T08:21:24.411Z,1.00
2022-08-12T08:24:18.112Z,1.00
2022-08-12T08:26:50.570Z,1.00
2022-08-12T08:29:22.203Z,1.00
2022-08-12T08:32:00.519Z,1.00
2022-08-12T08:37:25.377Z,1.00
2022-08-12T08:40:17.953Z,1.00
2022-08-12T08:42:50.782Z,1.00
2022-08-12T08:45:21.810Z,1.00
2022-08-12T08:47:57.212Z,1.00
2022-08-12T08:50:30.367Z,1.00
2022-08-12T08:53:03.058Z,1.00
2022-08-12T08:56:03.338Z,1.00
2022-08-12T08:58:27.045Z,1.00
2022-08-12T09:00:57.217Z,1.00
2022-08-12T09:05:07.916Z,1.00
2022-08-12T09:06:20.974Z,1.00
2022-08-12T09:09:13.292Z,1.00
2022-08-12T09:14:32.299Z,1.00
2022-08-12T09:17:02.928Z,1.00
2022-08-12T09:19:35.774Z,1.00
2022-08-12T09:22:08.651Z,1.00
2022-08-12T09:24:41.465Z,1.00
2022-08-12T09:27:16.440Z,1.00
2022-08-12T09:30:10.028Z,1.00
2022-08-12T09:33:04.379Z,1.00
2022-08-12T09:35:43.159Z,1.00
2022-08-12T09:38:28.871Z,1.00
2022-08-12T09:42:32.939Z,1.00
2022-08-12T09:44:05.512Z,1.00
2022-08-12T09:46:36.773Z,1.00
2022-08-12T09:49:13.418Z,1.00
2022-08-12T09:51:50.560Z,1.00
2022-08-12T09:54:32.788Z,1.00
2022-08-12T09:58:46.071Z,1.00
2022-08-12T10:00:13.845Z,1.00
2022-08-12T10:03:06.779Z,1.00
2022-08-12T10:06:27.036Z,1.00
2022-08-12T10:08:34.897Z,1.00
2022-08-12T10:11:23.263Z,1.00
2022-08-12T10:13:56.914Z,1.00
2022-08-12T10:16:39.195Z,1.00
2022-08-12T10:19:17.431Z,1.00
2022-08-12T10:21:48.264Z,1.00
2022-08-12T10:24:29.761Z,1.00
2022-08-12T10:27:14.225Z,1.00
2022-08-12T10:30:38.841Z,1.00
2022-08-12T10:32:44.945Z,1.00
2022-08-12T10:35:38.301Z,1.00
2022-08-12T10:38:37.677Z,1.00
2022-08-12T10:41:19.157Z,1.00
2022-08-12T10:43:55.658Z,1.00
2022-08-12T10:46:31.256Z,1.00
2022-08-12T10:49:05.983Z,1.00
2022-08-12T10:52:32.383Z,1.00
2022-08-12T10:54:51.021Z,1.00
2022-08-12T10:58:14.454Z,1.00
2022-08-12T11:00:30.843Z,1.00
2022-08-12T11:04:23.463Z,1.00
2022-08-12T11:07:08.851Z,1.00
2022-08-12T11:08:58.014Z,1.00
2022-08-12T11:12:35.472Z,1.00
2022-08-12T11:14:49.923Z,1.00
2022-08-12T11:17:43.144Z,1.00
2022-08-12T11:20:11.023Z,1.00
2022-08-12T11:22:57.622Z,1.00
2022-08-12T11:25:56.826Z,1.00
2022-08-12T11:28:33.201Z,1.00
2022-08-12T11:31:13.278Z,1.00
2022-08-12T11:34:04.208Z,1.00
2022-08-12T11:36:39.219Z,1.00
2022-08-12T11:39:14.140Z,1.00
2022-08-12T11:41:44.431Z,1.00
2022-08-12T11:44:37.056Z,1.00
2022-08-12T11:47:10.274Z,1.00
2022-08-12T11:49:40.535Z,1.00
2022-08-12T11:52:26.570Z,1.00
2022-08-12T11:55:15.036Z,1.00
2022-08-12T11:58:14.383Z,1.00
2022-08-12T12:03:48.651Z,1.00
2022-08-12T12:06:21.037Z,1.00
2022-08-12T12:08:53.696Z,1.00
2022-08-12T12:11:25.867Z,1.00
2022-08-12T12:14:07.444Z,1.00
2022-08-12T12:16:50.004Z,1.00
2022-08-12T12:19:23.677Z,1.00
2022-08-12T12:21:57.061Z,1.00
2022-08-12T12:24:27.199Z,1.00
2022-08-12T12:27:00.119Z,1.00
2022-08-12T12:30:18.137Z,1.00
2022-08-12T12:32:29.606Z,1.00
2022-08-12T12:35:13.588Z,1.00
2022-08-12T12:38:05.355Z,1.00
2022-08-12T12:40:50.200Z,1.00
2022-08-12T12:43:28.387Z,1.00
2022-08-12T12:46:08.939Z,1.00
2022-08-12T12:48:44.298Z,1.00
2022-08-12T12:51:49.092Z,1.00
2022-08-12T12:54:10.607Z,1.00
2022-08-12T12:56:43.215Z,1.00
2022-08-12T12:59:55.230Z,1.00
2022-08-12T13:02:08.640Z,1.00
2022-08-12T13:04:41.779Z,1.00
2022-08-12T13:07:22.139Z,1.00
2022-08-12T13:10:13.343Z,1.00
2022-08-12T13:12:43.770Z,1.00
2022-08-12T13:15:43.092Z,1.00
2022-08-12T13:18:08.428Z,1.00
2022-08-12T13:20:43.282Z,1.00
2022-08-12T13:23:36.447Z,1.00
2022-08-12T13:26:14.534Z,1.00
2022-08-12T13:28:53.066Z,1.00
2022-08-12T13:31:27.236Z,1.00
2022-08-12T13:34:32.168Z,1.00
2022-08-12T13:36:48.190Z,1.00
2022-08-12T13:39:22.758Z,1.00
2022-08-12T13:41:53.322Z,1.00
2022-08-12T13:44:30.362Z,1.00
2022-08-12T13:47:00.754Z,1.00
2022-08-12T13:49:55.377Z,1.00
2022-08-12T13:52:26.335Z,1.00
2022-08-12T13:54:59.159Z,1.00
2022-08-12T13:57:46.863Z,1.00
2022-08-12T14:00:18.846Z,1.00
2022-08-12T14:02:53.333Z,1.00
2022-08-12T14:05:31.294Z,1.00
2022-08-12T14:08:11.239Z,1.00
2022-08-12T14:10:51.477Z,1.00
2022-08-12T14:14:03.253Z,1.00
2022-08-12T14:16:16.907Z,1.00
2022-08-12T14:19:18.326Z,1.00
2022-08-12T14:22:00.755Z,1.00
2022-08-12T14:24:41.068Z,1.00
2022-08-12T14:28:02.476Z,1.00
2022-08-12T14:30:15.132Z,1.00
2022-08-12T14:32:58.116Z,1.00
2022-08-12T14:35:28.294Z,1.00
2022-08-12T14:38:26.149Z,1.00
2022-08-12T14:40:59.958Z,1.00
2022-08-12T14:43:58.734Z,1.00
2022-08-12T14:46:28.146Z,1.00
2022-08-12T14:48:58.598Z,1.00
2022-08-12T14:52:59.077Z,1.00
2022-08-12T14:57:23.946Z,1.00
2022-08-12T15:00:10.224Z,1.00
2022-08-12T15:02:41.003Z,1.00
2022-08-12T15:05:12.237Z,1.00
2022-08-12T15:08:04.887Z,1.00
2022-08-12T15:10:40.025Z,1.00
2022-08-12T15:13:18.563Z,1.00
2022-08-12T15:15:56.527Z,1.00
2022-08-12T15:18:27.623Z,1.00
2022-08-12T15:21:04.118Z,1.00
2022-08-12T15:23:54.818Z,1.00
2022-08-12T15:26:35.436Z,1.00
2022-08-12T15:29:10.923Z,1.00
2022-08-12T15:32:01.303Z,1.00
2022-08-12T15:34:34.688Z,1.00
2022-08-12T15:37:04.918Z,1.00
2022-08-12T15:39:39.474Z,1.00
2022-08-12T15:42:26.499Z,1.00
2022-08-12T15:44:56.658Z,1.00
2022-08-12T15:47:48.168Z,1.00
2022-08-12T15:50:23.073Z,1.00
2022-08-12T15:52:58.351Z,1.00
2022-08-12T15:55:46.249Z,1.00
2022-08-12T15:58:17.474Z,1.00
2022-08-12T16:00:48.119Z,1.00
2022-08-12T16:03:45.313Z,1.00
2022-08-12T16:06:36.440Z,1.00
2022-08-12T16:09:15.720Z,1.00
2022-08-12T16:11:52.166Z,1.00
2022-08-12T16:14:22.335Z,1.00
2022-08-12T16:16:57.758Z,1.00
2022-08-12T16:20:02.969Z,1.00
2022-08-12T16:22:22.630Z,1.00
2022-08-12T16:24:53.097Z,1.00
2022-08-12T16:27:25.634Z,1.00
2022-08-12T16:29:57.801Z,1.00
2022-08-12T16:32:31.103Z,1.00
2022-08-12T16:35:16.234Z,1.00
2022-08-12T16:38:24.615Z,1.00
2022-08-12T16:40:46.237Z,1.00
2022-08-12T16:43:28.373Z,1.00
2022-08-12T16:46:05.481Z,1.00
2022-08-12T16:48:55.058Z,1.00
2022-08-12T16:51:28.222Z,1.00
2022-08-12T16:53:58.359Z,1.00
2022-08-12T16:56:33.840Z,1.00
2022-08-12T16:59:11.977Z,1.00
2022-08-12T17:01:49.673Z,1.00
2022-08-12T17:04:20.300Z,1.00
2022-08-12T17:09:08.736Z,1.00
2022-08-12T17:11:50.267Z,1.00
2022-08-12T17:14:23.482Z,1.00
2022-08-12T17:16:56.086Z,1.00
2022-08-12T17:20:35.244Z,1.00
2022-08-12T17:22:21.993Z,1.00
2022-08-12T17:24:57.222Z,1.00
2022-08-12T17:27:30.851Z,1.00
2022-08-12T17:30:06.377Z,1.00
2022-08-12T17:32:37.914Z,1.00
2022-08-12T17:35:23.120Z,1.00
2022-08-12T17:38:03.633Z,1.00
2022-08-12T17:40:39.339Z,1.00
2022-08-12T17:43:55.799Z,1.00
2022-08-12T17:46:12.791Z,1.00
2022-08-12T17:48:55.377Z,1.00
2022-08-12T17:51:31.443Z,1.00
2022-08-12T17:54:10.566Z,1.00
2022-08-12T17:56:48.997Z,1.00
2022-08-12T17:59:47.251Z,1.00
2022-08-12T18:02:15.993Z,1.00
2022-08-12T18:05:05.080Z,1.00
2022-08-12T18:07:39.750Z,1.00
2022-08-12T18:10:11.082Z,1.00
2022-08-12T18:12:42.816Z,1.00
2022-08-12T18:15:26.876Z,1.00
2022-08-12T18:18:16.685Z,1.00
2022-08-12T18:20:52.587Z,1.00
2022-08-12T18:23:24.401Z,1.00
2022-08-12T18:26:15.969Z,1.00
2022-08-12T18:28:51.956Z,1.00
2022-08-12T18:31:43.792Z,1.00
2022-08-12T18:34:18.691Z,1.00
2022-08-12T18:36:55.558Z,1.00
2022-08-12T18:39:26.105Z,1.00
2022-08-12T18:41:59.534Z,1.00
2022-08-12T18:44:33.570Z,1.00
2022-08-12T18:47:09.653Z,1.00
2022-08-12T18:49:47.431Z,1.00
2022-08-12T18:52:20.698Z,1.00
2022-08-12T18:54:59.328Z,1.00
2022-08-12T18:58:07.166Z,1.00
2022-08-12T19:00:28.608Z,1.00
2022-08-12T19:02:58.776Z,1.00
2022-08-12T19:05:53.467Z,1.00
2022-08-12T19:08:26.455Z,1.00
2022-08-12T19:11:18.882Z,1.00
2022-08-12T19:14:02.796Z,1.00
2022-08-12T19:16:41.299Z,1.00
2022-08-12T19:19:18.310Z,1.00
2022-08-12T19:21:56.690Z,1.00
2022-08-12T19:24:39.923Z,1.00
2022-08-12T19:27:15.963Z,1.00
2022-08-12T19:30:06.812Z,1.00
2022-08-12T19:32:41.688Z,1.00
2022-08-12T19:38:07.293Z,1.00
2022-08-12T19:40:40.241Z,1.00
2022-08-12T19:43:19.819Z,1.00
2022-08-12T19:45:54.530Z,1.00
2022-08-12T19:48:32.744Z,1.00
2022-08-12T19:51:09.044Z,1.00
2022-08-12T19:53:57.318Z,1.00
2022-08-12T19:56:32.719Z,1.00
2022-08-12T19:59:18.667Z,1.00
2022-08-12T20:02:02.776Z,1.00
2022-08-12T20:04:41.014Z,1.00
2022-08-12T20:07:24.259Z,1.00
2022-08-12T20:10:00.635Z,1.00
2022-08-12T20:12:32.970Z,1.00
2022-08-12T20:15:10.231Z,1.00
2022-08-12T20:17:51.117Z,1.00
2022-08-12T20:20:27.576Z,1.00
2022-08-12T20:22:58.648Z,1.00
2022-08-12T20:25:53.506Z,1.00
2022-08-12T20:28:22.453Z,1.00
2022-08-12T20:30:59.991Z,1.00
2022-08-12T20:33:50.969Z,1.00
2022-08-12T20:36:41.747Z,1.00
2022-08-12T20:39:34.247Z,1.00
2022-08-12T20:42:10.492Z,1.00
2022-08-12T20:44:43.525Z,1.00
2022-08-12T20:47:19.785Z,1.00
2022-08-12T20:49:55.350Z,1.00
2022-08-12T20:52:35.018Z,1.00
2022-08-12T20:55:15.659Z,1.00
2022-08-12T20:58:02.578Z,1.00
2022-08-12T21:00:35.311Z,1.00
2022-08-12T21:03:18.140Z,1.00
2022-08-12T21:06:13.601Z,1.00
2022-08-12T21:08:47.115Z,1.00
2022-08-12T21:11:20.633Z,1.00
2022-08-12T21:13:59.117Z,1.00
2022-08-12T21:16:35.611Z,1.00
2022-08-12T21:19:08.025Z,1.00
2022-08-12T21:21:49.833Z,1.00
2022-08-12T21:24:25.161Z,1.00
2022-08-12T21:27:03.438Z,1.00
2022-08-12T21:29:49.929Z,1.00
2022-08-12T21:32:37.065Z,1.00
2022-08-12T21:35:19.387Z,1.00
2022-08-12T21:37:53.084Z,1.00
2022-08-12T21:40:37.032Z,1.00
2022-08-12T21:43:08.243Z,1.00
2022-08-12T21:45:45.942Z,1.00
2022-08-12T21:48:25.346Z,1.00
2022-08-12T21:50:56.522Z,1.00
2022-08-12T21:54:05.831Z,1.00
2022-08-12T21:56:34.349Z,1.00
2022-08-12T21:59:07.293Z,1.00
2022-08-12T22:01:51.538Z,1.00
2022-08-12T22:04:34.597Z,1.00
2022-08-12T22:07:09.482Z,1.00
2022-08-12T22:09:42.839Z,1.00
2022-08-12T22:12:29.041Z,1.00
2022-08-12T22:14:59.161Z,1.00
2022-08-12T22:17:50.185Z,1.00
2022-08-12T22:20:29.402Z,1.00
2022-08-12T22:23:05.415Z,1.00
2022-08-12T22:25:40.128Z,1.00
2022-08-12T22:28:26.055Z,1.00
2022-08-12T22:31:08.636Z,1.00
2022-08-12T22:33:53.951Z,1.00
2022-08-12T22:36:29.324Z,1.00
2022-08-12T22:39:01.616Z,1.00
2022-08-12T22:41:44.234Z,1.00
2022-08-12T22:44:54.404Z,1.00
2022-08-12T22:47:55.302Z,1.00
2022-08-12T22:50:29.447Z,1.00
2022-08-12T22:53:15.294Z,1.00
2022-08-12T22:56:00.502Z,1.00
2022-08-12T22:58:40.451Z,1.00
2022-08-12T23:01:21.349Z,1.00
2022-08-12T23:04:07.827Z,1.00
2022-08-12T23:06:40.710Z,1.00
2022-08-12T23:09:10.860Z,1.00
2022-08-12T23:11:43.719Z,1.00
2022-08-12T23:14:12.478Z,1.00
2022-08-12T23:16:46.546Z,1.00
2022-08-12T23:19:29.674Z,1.00
2022-08-12T23:22:36.022Z,1.00
2022-08-12T23:25:00.098Z,1.00
2022-08-12T23:27:44.362Z,1.00
2022-08-12T23:30:31.923Z,1.00
2022-08-12T23:33:20.605Z,1.00
2022-08-12T23:36:03.258Z,1.00
2022-08-12T23:38:35.618Z,1.00
2022-08-12T23:41:17.639Z,1.00
2022-08-12T23:43:50.218Z,1.00
2022-08-12T23:46:22.585Z,1.00
2022-08-12T23:49:01.032Z,1.00
2022-08-12T23:51:35.565Z,1.00
2022-08-12T23:54:10.181Z,1.00
2022-08-12T23:56:48.803Z,1.00
2022-08-12T23:59:19.347Z,1.00
